Dati Storici

Data ora Umidita' aria (%) Temperatura aria (°C) Rad globale (W/m²) Gonioanemometro (°) Tacoanemometro (m/s) Pioggia (mm)
22-10-2012 12:00 61.3 % 18.722 523.326 43.458 2.549 0
22-10-2012 11:50 63.3 % 18.658 513.412 14.802 1.505 0
22-10-2012 11:40 64.9 % 18.702 500.837 354.19 0.782 0
22-10-2012 11:30 65.1 % 17.714 495.699 35.761 2.579 0
22-10-2012 11:20 65.1 % 17.679 481.713 19.419 1.998 0
22-10-2012 11:10 66.7 % 18.051 467.53 16.577 1.085 0
22-10-2012 11:00 67.4 % 16.796 451.671 40.16 1.412 0
22-10-2012 10:50 68.3 % 16.487 434.44 78.382 1.457 0
22-10-2012 10:40 68.5 % 16.348 413.578 20.127 1.579 0
22-10-2012 10:30 68.8 % 16.301 119.714 45.875 1.51 0
22-10-2012 10:20 69.4 % 15.374 376.809 40.438 1.819 0
22-10-2012 10:10 70.4 % 15.189 354.622 16.722 1.027 0
22-10-2012 10:00 70.8 % 14.869 333.004 60.96 2.153 0
22-10-2012 09:50 70.6 % 14.762 308.676 11.603 2.165 0
22-10-2012 09:40 71.3 % 14.82 283.129 6.064 1.097 0
22-10-2012 09:30 71.5 % 14.742 257.675 37.536 1.031 0
22-10-2012 09:20 73.9 % 14.649 236.112 350.288 0.904 0
22-10-2012 09:10 74 % 13.969 210.282 41.609 1.143 0
22-10-2012 09:00 75.8 % 14.141 181.872 13.181 0.619 0
22-10-2012 08:50 76.4 % 13.819 152.684 324.907 1.067 0

I dati sono presentati in modo automatico a scopo informativo. In seguito a verifica i dati possono subire modifiche o essere invalidati e non riportati negli archivi definitivi.